createdAt,value
2023-04-30T00:03:19.430Z,-0.18
2023-04-30T00:08:23.756Z,0.20
2023-04-30T00:13:27.544Z,0.51
2023-04-30T00:18:31.590Z,0.51
2023-04-30T00:23:35.568Z,1.13
2023-04-30T00:28:39.920Z,1.38
2023-04-30T00:33:44.182Z,1.56
2023-04-30T00:38:48.101Z,1.82
2023-04-30T00:43:52.195Z,2.02
2023-04-30T00:48:56.349Z,2.06
2023-04-30T00:54:04.251Z,2.21
2023-04-30T00:59:08.196Z,2.19
2023-04-30T01:04:13.075Z,2.68
2023-04-30T01:09:17.186Z,2.70
2023-04-30T01:14:42.512Z,2.94
2023-04-30T01:19:47.357Z,2.99
2023-04-30T01:25:20.050Z,2.97
2023-04-30T01:30:26.239Z,3.04
2023-04-30T01:35:53.807Z,3.02
2023-04-30T01:41:00.796Z,3.11
2023-04-30T01:46:23.214Z,3.29
2023-04-30T01:51:40.862Z,3.33
2023-04-30T01:57:03.702Z,2.95
2023-04-30T02:02:08.136Z,3.38
2023-04-30T02:07:14.304Z,3.76
2023-04-30T02:12:18.239Z,3.38
2023-04-30T02:17:22.584Z,2.79
2023-04-30T02:22:27.165Z,3.33
2023-04-30T02:27:32.736Z,3.28
2023-04-30T02:32:37.309Z,2.83
2023-04-30T02:37:41.694Z,2.22
2023-04-30T02:42:45.815Z,2.97
2023-04-30T02:47:49.757Z,3.08
2023-04-30T02:52:54.049Z,3.12
2023-04-30T02:57:58.046Z,3.16
2023-04-30T03:03:02.239Z,2.79
2023-04-30T03:08:06.634Z,2.52
2023-04-30T03:13:10.516Z,2.43
2023-04-30T03:18:14.807Z,2.26
2023-04-30T03:23:18.794Z,1.85
2023-04-30T03:28:22.938Z,2.22
2023-04-30T03:33:27.266Z,2.32
2023-04-30T03:38:31.639Z,2.33
2023-04-30T03:43:35.661Z,2.50
2023-04-30T03:48:39.599Z,2.39
2023-04-30T03:53:43.657Z,2.33
2023-04-30T03:58:47.962Z,2.38
2023-04-30T04:03:52.121Z,2.60
2023-04-30T04:08:56.343Z,1.71
2023-04-30T04:14:00.169Z,2.87
2023-04-30T04:19:05.258Z,2.57
2023-04-30T04:24:10.231Z,2.64
2023-04-30T04:29:14.166Z,2.77
2023-04-30T04:34:20.569Z,2.44
2023-04-30T04:39:24.746Z,2.37
2023-04-30T04:44:29.573Z,2.53
2023-04-30T04:49:33.720Z,2.54
2023-04-30T04:54:37.796Z,2.43
2023-04-30T04:59:41.887Z,2.41
2023-04-30T05:04:48.049Z,2.69
2023-04-30T05:09:52.069Z,3.20
2023-04-30T05:14:56.254Z,2.97
2023-04-30T05:20:00.669Z,2.64
2023-04-30T05:25:06.040Z,2.46
2023-04-30T05:30:10.618Z,2.34
2023-04-30T05:35:14.640Z,2.31
2023-04-30T05:40:19.021Z,2.10
2023-04-30T05:45:23.756Z,2.15
2023-04-30T05:50:27.881Z,2.33
2023-04-30T05:55:32.472Z,2.36
2023-04-30T06:00:36.764Z,2.14
2023-04-30T06:05:42.149Z,2.18
2023-04-30T06:10:46.463Z,2.42
2023-04-30T06:15:50.426Z,2.67
2023-04-30T06:20:54.589Z,2.75
2023-04-30T06:25:58.613Z,2.88
2023-04-30T06:31:02.687Z,3.14
2023-04-30T06:36:07.179Z,2.98
2023-04-30T06:41:11.237Z,2.72
2023-04-30T06:46:16.316Z,3.08
2023-04-30T06:51:20.164Z,3.63
2023-04-30T06:56:24.224Z,3.69
2023-04-30T07:01:28.360Z,3.37
2023-04-30T07:06:32.255Z,3.21
2023-04-30T07:11:36.548Z,3.23
2023-04-30T07:16:40.308Z,3.20
2023-04-30T07:21:45.206Z,3.51
2023-04-30T07:26:49.311Z,3.24
2023-04-30T07:31:53.716Z,3.26
2023-04-30T07:36:57.758Z,3.15
2023-04-30T07:42:04.075Z,3.29
2023-04-30T07:47:08.420Z,3.67
2023-04-30T07:52:13.084Z,3.79
2023-04-30T07:57:17.140Z,3.70
2023-04-30T08:02:21.776Z,3.10
2023-04-30T08:07:26.272Z,3.47
2023-04-30T08:12:30.281Z,2.99
2023-04-30T08:17:35.754Z,2.95
2023-04-30T08:22:40.344Z,3.12
2023-04-30T08:27:44.725Z,3.17
2023-04-30T08:32:50.242Z,3.07
2023-04-30T08:37:54.887Z,3.17
2023-04-30T08:43:06.991Z,3.28
2023-04-30T08:48:17.091Z,3.47
2023-04-30T08:53:22.433Z,3.48
2023-04-30T08:58:26.504Z,3.53
2023-04-30T09:03:33.473Z,3.57
2023-04-30T09:08:48.703Z,3.42
2023-04-30T09:13:54.335Z,3.41
2023-04-30T09:18:58.460Z,3.33
2023-04-30T09:24:05.964Z,3.37
2023-04-30T09:29:10.916Z,2.94
2023-04-30T09:34:15.919Z,3.34
2023-04-30T09:39:19.857Z,3.34
2023-04-30T09:44:32.723Z,3.47
2023-04-30T09:49:38.957Z,3.46
2023-04-30T09:54:45.929Z,3.35
2023-04-30T09:59:53.459Z,3.33
2023-04-30T10:05:00.191Z,3.30
2023-04-30T10:10:12.062Z,3.27
2023-04-30T10:15:21.483Z,3.22
2023-04-30T10:20:27.884Z,3.08
2023-04-30T10:25:33.936Z,3.12
2023-04-30T10:30:39.270Z,3.08
2023-04-30T10:36:09.960Z,3.03
2023-04-30T10:41:13.887Z,3.05
2023-04-30T10:46:24.992Z,3.03
2023-04-30T10:51:50.548Z,2.95
2023-04-30T10:56:57.337Z,2.96
2023-04-30T11:02:03.025Z,3.06
2023-04-30T11:07:11.357Z,3.14
2023-04-30T11:12:21.839Z,3.19
2023-04-30T11:17:28.381Z,3.13
2023-04-30T11:22:36.835Z,3.16
2023-04-30T11:27:45.927Z,3.00
2023-04-30T11:32:51.381Z,2.81
2023-04-30T11:37:58.443Z,2.71
2023-04-30T11:43:02.363Z,2.71
2023-04-30T11:48:06.667Z,2.71
2023-04-30T11:53:11.278Z,2.71
2023-04-30T11:58:16.356Z,2.68
2023-04-30T12:03:20.640Z,2.60
2023-04-30T12:08:25.023Z,2.64
2023-04-30T12:13:32.041Z,2.63
2023-04-30T12:18:36.111Z,2.62
2023-04-30T12:23:40.209Z,2.63
2023-04-30T12:28:44.237Z,2.33
2023-04-30T12:33:56.534Z,2.54
2023-04-30T12:39:08.614Z,2.42
2023-04-30T12:44:18.006Z,2.27
2023-04-30T12:49:30.262Z,2.13
2023-04-30T12:54:35.324Z,2.04
2023-04-30T12:59:57.071Z,1.98
2023-04-30T13:05:01.567Z,1.86
2023-04-30T13:10:08.098Z,1.82
2023-04-30T13:15:12.202Z,1.87
2023-04-30T13:20:19.801Z,1.87
2023-04-30T13:25:24.117Z,1.82
2023-04-30T13:30:28.176Z,1.75
2023-04-30T13:35:32.122Z,1.72
2023-04-30T13:40:36.098Z,1.70
2023-04-30T13:45:40.085Z,1.67
2023-04-30T13:50:44.093Z,1.67
2023-04-30T13:55:47.905Z,1.56
2023-04-30T14:00:52.335Z,1.66
2023-04-30T14:05:56.753Z,1.61
2023-04-30T14:11:01.059Z,1.54
2023-04-30T14:16:05.211Z,1.21
2023-04-30T14:21:09.072Z,1.47
2023-04-30T14:26:13.678Z,1.45
2023-04-30T14:31:17.612Z,1.39
2023-04-30T14:36:21.815Z,1.41
2023-04-30T14:41:26.592Z,1.36
2023-04-30T14:46:30.559Z,1.33
2023-04-30T14:51:34.587Z,1.26
2023-04-30T14:56:38.567Z,1.21
2023-04-30T15:01:43.469Z,1.16
2023-04-30T15:06:48.472Z,1.09
2023-04-30T15:11:52.608Z,0.99
2023-04-30T15:16:57.521Z,0.90
2023-04-30T15:22:01.894Z,0.82
2023-04-30T15:27:06.079Z,0.83
2023-04-30T15:32:09.920Z,0.46
2023-04-30T15:37:13.980Z,0.74
2023-04-30T15:42:17.734Z,0.71
2023-04-30T15:47:23.854Z,0.66
2023-04-30T15:52:28.168Z,0.71
2023-04-30T15:57:31.939Z,0.66
2023-04-30T16:02:36.898Z,0.28
2023-04-30T16:07:43.905Z,0.62
2023-04-30T16:12:48.639Z,0.61
2023-04-30T16:17:52.712Z,0.62
2023-04-30T16:22:57.844Z,0.51
2023-04-30T16:28:01.749Z,0.54
2023-04-30T16:33:06.260Z,0.54
2023-04-30T16:38:10.933Z,0.51
2023-04-30T16:43:15.069Z,0.44
2023-04-30T16:48:18.923Z,0.15
2023-04-30T16:53:23.045Z,0.21
2023-04-30T16:58:27.128Z,0.42
2023-04-30T17:03:35.695Z,0.32
2023-04-30T17:08:40.982Z,0.37
2023-04-30T17:13:44.885Z,0.35
2023-04-30T17:18:48.941Z,0.27
2023-04-30T17:23:53.009Z,0.26
2023-04-30T17:28:57.234Z,0.19
2023-04-30T17:34:01.069Z,0.02
2023-04-30T17:39:06.701Z,-0.07
2023-04-30T17:44:10.499Z,-0.03
2023-04-30T17:49:14.661Z,-0.01
2023-04-30T17:54:18.615Z,-0.04
2023-04-30T17:59:22.965Z,-0.03
2023-04-30T18:04:27.042Z,-0.02
2023-04-30T18:09:32.838Z,-0.07
2023-04-30T18:14:36.853Z,-0.15
2023-04-30T18:19:45.130Z,-0.15
2023-04-30T18:24:48.989Z,-0.06
2023-04-30T18:29:53.358Z,-0.14
2023-04-30T18:34:57.825Z,-0.03
2023-04-30T18:40:01.663Z,-0.07
2023-04-30T18:45:09.859Z,-0.05
2023-04-30T18:50:18.154Z,-0.07
2023-04-30T18:55:21.940Z,-0.05
2023-04-30T19:00:26.204Z,-0.05
2023-04-30T19:05:30.039Z,-0.06
2023-04-30T19:10:37.349Z,-0.08
2023-04-30T19:15:44.636Z,-0.14
2023-04-30T19:21:02.690Z,-0.15
2023-04-30T19:26:06.727Z,-0.15
2023-04-30T19:31:12.089Z,-0.50
2023-04-30T19:36:16.319Z,-0.15
2023-04-30T19:41:20.228Z,-0.16
2023-04-30T19:46:24.291Z,-0.51
2023-04-30T19:51:28.369Z,-0.22
2023-04-30T19:56:32.857Z,-0.28
2023-04-30T20:01:37.562Z,-0.24
2023-04-30T20:06:41.576Z,-0.24
2023-04-30T20:11:50.254Z,-0.21
2023-04-30T20:16:54.804Z,-0.18
2023-04-30T20:21:58.724Z,-0.21
2023-04-30T20:27:04.901Z,-0.23
2023-04-30T20:32:09.337Z,-0.23
2023-04-30T20:37:13.464Z,-0.29
2023-04-30T20:42:17.595Z,-0.22
2023-04-30T20:47:21.672Z,-0.22
2023-04-30T20:52:25.709Z,-0.27
2023-04-30T20:57:29.777Z,-0.20
2023-04-30T21:02:34.904Z,-0.19
2023-04-30T21:07:39.004Z,-0.23
2023-04-30T21:12:43.347Z,-0.20
2023-04-30T21:17:47.302Z,-0.22
2023-04-30T21:22:53.165Z,-0.19
2023-04-30T21:27:57.704Z,-0.17
2023-04-30T21:33:01.711Z,-0.15
2023-04-30T21:38:05.950Z,-0.23
2023-04-30T21:43:10.779Z,-0.16
2023-04-30T21:48:14.858Z,-0.16
2023-04-30T21:53:19.015Z,-0.22
2023-04-30T21:58:23.017Z,-0.26
2023-04-30T22:03:27.220Z,-0.29
2023-04-30T22:08:31.330Z,-0.28
2023-04-30T22:13:35.481Z,-0.36
2023-04-30T22:18:40.334Z,-0.28
2023-04-30T22:23:44.298Z,-0.26
2023-04-30T22:28:48.229Z,-0.28
2023-04-30T22:33:52.387Z,-0.28
2023-04-30T22:38:57.075Z,-0.25
2023-04-30T22:44:01.783Z,-0.28
2023-04-30T22:49:05.977Z,-0.27
2023-04-30T22:54:10.567Z,-0.24
2023-04-30T22:59:14.606Z,-0.23
2023-04-30T23:04:18.576Z,-0.29
2023-04-30T23:09:22.651Z,-0.34
2023-04-30T23:14:26.790Z,-0.21
2023-04-30T23:19:30.575Z,-0.20
2023-04-30T23:24:36.679Z,-0.16
2023-04-30T23:29:40.765Z,-0.15
2023-04-30T23:34:44.797Z,-0.16
2023-04-30T23:39:48.648Z,-0.15
2023-04-30T23:44:52.761Z,-0.19
2023-04-30T23:49:57.259Z,-0.18
2023-04-30T23:55:01.429Z,-0.16
